sensor_id;sensor_type;location;lat;lon;timestamp;P1;durP1;ratioP1;P2;durP2;ratioP2
41512;SDS011;27244;59.940;30.280;2023-05-07T00:00:59;2.88;;;1.10;;
41512;SDS011;27244;59.940;30.280;2023-05-07T00:03:26;2.83;;;1.00;;
41512;SDS011;27244;59.940;30.280;2023-05-07T00:05:53;2.50;;;1.20;;
41512;SDS011;27244;59.940;30.280;2023-05-07T00:08:20;2.25;;;1.30;;
41512;SDS011;27244;59.940;30.280;2023-05-07T00:10:48;2.35;;;1.30;;
41512;SDS011;27244;59.940;30.280;2023-05-07T00:13:15;1.75;;;1.13;;
41512;SDS011;27244;59.940;30.280;2023-05-07T00:15:42;1.92;;;1.17;;
41512;SDS011;27244;59.940;30.280;2023-05-07T00:18:09;2.13;;;1.25;;
41512;SDS011;27244;59.940;30.280;2023-05-07T00:20:35;2.45;;;1.33;;
41512;SDS011;27244;59.940;30.280;2023-05-07T00:23:02;2.42;;;1.15;;
41512;SDS011;27244;59.940;30.280;2023-05-07T00:25:29;2.83;;;1.27;;
41512;SDS011;27244;59.940;30.280;2023-05-07T00:27:57;2.33;;;1.20;;
41512;SDS011;27244;59.940;30.280;2023-05-07T00:30:28;3.90;;;1.20;;
41512;SDS011;27244;59.940;30.280;2023-05-07T00:32:55;2.63;;;1.15;;
41512;SDS011;27244;59.940;30.280;2023-05-07T00:35:22;1.98;;;1.08;;
41512;SDS011;27244;59.940;30.280;2023-05-07T00:37:49;2.10;;;1.20;;
41512;SDS011;27244;59.940;30.280;2023-05-07T00:40:16;2.00;;;1.20;;
41512;SDS011;27244;59.940;30.280;2023-05-07T00:42:43;2.30;;;1.17;;
41512;SDS011;27244;59.940;30.280;2023-05-07T00:45:13;2.17;;;1.30;;
41512;SDS011;27244;59.940;30.280;2023-05-07T00:47:40;3.20;;;1.10;;
41512;SDS011;27244;59.940;30.280;2023-05-07T00:50:08;2.00;;;1.20;;
41512;SDS011;27244;59.940;30.280;2023-05-07T00:52:37;3.38;;;1.45;;
41512;SDS011;27244;59.940;30.280;2023-05-07T00:55:05;2.53;;;1.10;;
41512;SDS011;27244;59.940;30.280;2023-05-07T00:57:33;3.72;;;1.35;;
41512;SDS011;27244;59.940;30.280;2023-05-07T01:00:03;2.35;;;1.00;;
41512;SDS011;27244;59.940;30.280;2023-05-07T01:02:32;2.05;;;1.20;;
41512;SDS011;27244;59.940;30.280;2023-05-07T01:04:59;3.22;;;0.98;;
41512;SDS011;27244;59.940;30.280;2023-05-07T01:07:27;2.40;;;1.25;;
41512;SDS011;27244;59.940;30.280;2023-05-07T01:09:54;1.98;;;1.10;;
41512;SDS011;27244;59.940;30.280;2023-05-07T01:12:22;1.73;;;0.95;;
41512;SDS011;27244;59.940;30.280;2023-05-07T01:14:50;2.03;;;0.98;;
41512;SDS011;27244;59.940;30.280;2023-05-07T01:17:17;2.20;;;1.20;;
41512;SDS011;27244;59.940;30.280;2023-05-07T01:19:47;3.28;;;1.25;;
41512;SDS011;27244;59.940;30.280;2023-05-07T01:22:15;2.42;;;1.00;;
41512;SDS011;27244;59.940;30.280;2023-05-07T01:24:50;1.65;;;0.95;;
41512;SDS011;27244;59.940;30.280;2023-05-07T01:27:17;2.17;;;1.40;;
41512;SDS011;27244;59.940;30.280;2023-05-07T01:29:46;3.15;;;1.75;;
41512;SDS011;27244;59.940;30.280;2023-05-07T01:32:12;2.78;;;1.23;;
41512;SDS011;27244;59.940;30.280;2023-05-07T01:34:41;3.17;;;1.33;;
41512;SDS011;27244;59.940;30.280;2023-05-07T01:37:10;2.17;;;1.30;;
41512;SDS011;27244;59.940;30.280;2023-05-07T01:39:38;2.58;;;1.38;;
41512;SDS011;27244;59.940;30.280;2023-05-07T01:42:07;1.55;;;0.88;;
41512;SDS011;27244;59.940;30.280;2023-05-07T01:44:35;1.52;;;0.90;;
41512;SDS011;27244;59.940;30.280;2023-05-07T01:47:01;1.63;;;1.02;;
41512;SDS011;27244;59.940;30.280;2023-05-07T01:49:29;2.08;;;1.20;;
41512;SDS011;27244;59.940;30.280;2023-05-07T01:51:57;2.55;;;1.00;;
41512;SDS011;27244;59.940;30.280;2023-05-07T01:54:25;1.30;;;0.90;;
41512;SDS011;27244;59.940;30.280;2023-05-07T01:56:54;2.97;;;1.20;;
41512;SDS011;27244;59.940;30.280;2023-05-07T01:59:23;2.97;;;0.90;;
41512;SDS011;27244;59.940;30.280;2023-05-07T02:01:50;1.98;;;1.20;;
41512;SDS011;27244;59.940;30.280;2023-05-07T02:04:18;2.83;;;1.75;;
41512;SDS011;27244;59.940;30.280;2023-05-07T02:06:45;2.88;;;1.13;;
41512;SDS011;27244;59.940;30.280;2023-05-07T02:09:13;3.05;;;1.33;;
41512;SDS011;27244;59.940;30.280;2023-05-07T02:11:43;1.73;;;1.10;;
41512;SDS011;27244;59.940;30.280;2023-05-07T02:14:12;2.35;;;1.10;;
41512;SDS011;27244;59.940;30.280;2023-05-07T02:16:40;3.20;;;1.17;;
41512;SDS011;27244;59.940;30.280;2023-05-07T02:19:07;3.05;;;1.13;;
41512;SDS011;27244;59.940;30.280;2023-05-07T02:21:35;4.75;;;1.17;;
41512;SDS011;27244;59.940;30.280;2023-05-07T02:24:01;3.13;;;1.30;;
41512;SDS011;27244;59.940;30.280;2023-05-07T02:26:28;1.67;;;1.17;;
41512;SDS011;27244;59.940;30.280;2023-05-07T02:28:55;2.05;;;1.25;;
41512;SDS011;27244;59.940;30.280;2023-05-07T02:31:22;3.20;;;1.42;;
41512;SDS011;27244;59.940;30.280;2023-05-07T02:33:50;4.07;;;1.60;;
41512;SDS011;27244;59.940;30.280;2023-05-07T02:36:17;2.60;;;1.52;;
41512;SDS011;27244;59.940;30.280;2023-05-07T02:38:50;3.10;;;1.80;;
41512;SDS011;27244;59.940;30.280;2023-05-07T02:41:17;4.68;;;1.65;;
41512;SDS011;27244;59.940;30.280;2023-05-07T02:43:45;4.80;;;1.90;;
41512;SDS011;27244;59.940;30.280;2023-05-07T02:46:12;3.10;;;1.48;;
41512;SDS011;27244;59.940;30.280;2023-05-07T02:48:44;3.13;;;1.50;;
41512;SDS011;27244;59.940;30.280;2023-05-07T02:51:12;3.28;;;1.88;;
41512;SDS011;27244;59.940;30.280;2023-05-07T02:53:41;1.98;;;1.52;;
41512;SDS011;27244;59.940;30.280;2023-05-07T02:56:08;2.92;;;1.52;;
41512;SDS011;27244;59.940;30.280;2023-05-07T02:58:35;3.67;;;1.73;;
41512;SDS011;27244;59.940;30.280;2023-05-07T03:01:03;3.20;;;1.85;;
41512;SDS011;27244;59.940;30.280;2023-05-07T03:03:35;2.40;;;1.50;;
41512;SDS011;27244;59.940;30.280;2023-05-07T03:06:02;3.55;;;1.63;;
41512;SDS011;27244;59.940;30.280;2023-05-07T03:08:30;3.63;;;1.67;;
41512;SDS011;27244;59.940;30.280;2023-05-07T03:10:57;1.95;;;1.27;;
41512;SDS011;27244;59.940;30.280;2023-05-07T03:13:24;4.70;;;2.20;;
41512;SDS011;27244;59.940;30.280;2023-05-07T03:15:51;2.33;;;1.15;;
41512;SDS011;27244;59.940;30.280;2023-05-07T03:18:18;3.42;;;1.27;;
41512;SDS011;27244;59.940;30.280;2023-05-07T03:20:45;2.28;;;1.55;;
41512;SDS011;27244;59.940;30.280;2023-05-07T03:23:12;2.67;;;1.20;;
41512;SDS011;27244;59.940;30.280;2023-05-07T03:25:40;2.20;;;1.02;;
41512;SDS011;27244;59.940;30.280;2023-05-07T03:28:07;1.92;;;1.30;;
41512;SDS011;27244;59.940;30.280;2023-05-07T03:30:46;2.17;;;0.98;;
41512;SDS011;27244;59.940;30.280;2023-05-07T03:33:13;2.90;;;1.30;;
41512;SDS011;27244;59.940;30.280;2023-05-07T03:35:40;2.28;;;1.40;;
41512;SDS011;27244;59.940;30.280;2023-05-07T03:38:08;2.72;;;1.02;;
41512;SDS011;27244;59.940;30.280;2023-05-07T03:40:37;1.98;;;1.10;;
41512;SDS011;27244;59.940;30.280;2023-05-07T03:43:05;2.33;;;1.15;;
41512;SDS011;27244;59.940;30.280;2023-05-07T03:45:36;2.83;;;1.30;;
41512;SDS011;27244;59.940;30.280;2023-05-07T03:48:13;2.13;;;1.38;;
41512;SDS011;27244;59.940;30.280;2023-05-07T03:50:41;2.20;;;1.02;;
41512;SDS011;27244;59.940;30.280;2023-05-07T03:53:08;3.17;;;1.20;;
41512;SDS011;27244;59.940;30.280;2023-05-07T03:55:38;2.65;;;1.25;;
41512;SDS011;27244;59.940;30.280;2023-05-07T03:58:06;2.13;;;1.30;;
41512;SDS011;27244;59.940;30.280;2023-05-07T04:00:33;1.67;;;1.20;;
41512;SDS011;27244;59.940;30.280;2023-05-07T04:03:11;3.70;;;1.13;;
41512;SDS011;27244;59.940;30.280;2023-05-07T04:05:38;3.38;;;1.23;;
41512;SDS011;27244;59.940;30.280;2023-05-07T04:08:05;2.35;;;1.13;;
41512;SDS011;27244;59.940;30.280;2023-05-07T04:10:38;2.25;;;1.17;;
41512;SDS011;27244;59.940;30.280;2023-05-07T04:13:11;2.38;;;1.05;;
41512;SDS011;27244;59.940;30.280;2023-05-07T04:15:38;1.70;;;1.00;;
41512;SDS011;27244;59.940;30.280;2023-05-07T04:18:10;2.13;;;0.98;;
41512;SDS011;27244;59.940;30.280;2023-05-07T04:20:38;1.52;;;1.00;;
41512;SDS011;27244;59.940;30.280;2023-05-07T04:23:09;1.70;;;1.10;;
41512;SDS011;27244;59.940;30.280;2023-05-07T04:25:36;3.40;;;1.20;;
41512;SDS011;27244;59.940;30.280;2023-05-07T04:28:19;2.05;;;1.52;;
41512;SDS011;27244;59.940;30.280;2023-05-07T04:30:46;1.25;;;0.93;;
41512;SDS011;27244;59.940;30.280;2023-05-07T04:33:13;1.70;;;0.95;;
41512;SDS011;27244;59.940;30.280;2023-05-07T04:35:42;1.92;;;1.17;;
41512;SDS011;27244;59.940;30.280;2023-05-07T04:38:09;2.38;;;1.17;;
41512;SDS011;27244;59.940;30.280;2023-05-07T04:40:36;2.20;;;1.10;;
41512;SDS011;27244;59.940;30.280;2023-05-07T04:43:04;3.40;;;1.00;;
41512;SDS011;27244;59.940;30.280;2023-05-07T04:45:40;2.13;;;1.20;;
41512;SDS011;27244;59.940;30.280;2023-05-07T04:48:08;3.83;;;1.13;;
41512;SDS011;27244;59.940;30.280;2023-05-07T04:50:37;1.45;;;0.88;;
41512;SDS011;27244;59.940;30.280;2023-05-07T04:53:06;3.20;;;1.02;;
41512;SDS011;27244;59.940;30.280;2023-05-07T04:55:33;2.03;;;1.20;;
41512;SDS011;27244;59.940;30.280;2023-05-07T04:58:00;1.50;;;1.08;;
41512;SDS011;27244;59.940;30.280;2023-05-07T05:00:31;1.27;;;0.90;;
41512;SDS011;27244;59.940;30.280;2023-05-07T05:03:01;1.35;;;0.90;;
41512;SDS011;27244;59.940;30.280;2023-05-07T05:05:28;5.40;;;1.20;;
41512;SDS011;27244;59.940;30.280;2023-05-07T05:07:56;2.58;;;1.00;;
41512;SDS011;27244;59.940;30.280;2023-05-07T05:10:24;1.15;;;0.80;;
41512;SDS011;27244;59.940;30.280;2023-05-07T05:12:51;2.25;;;0.93;;
41512;SDS011;27244;59.940;30.280;2023-05-07T05:15:19;2.35;;;1.00;;
41512;SDS011;27244;59.940;30.280;2023-05-07T05:17:46;2.03;;;0.90;;
41512;SDS011;27244;59.940;30.280;2023-05-07T05:20:14;2.95;;;0.90;;
41512;SDS011;27244;59.940;30.280;2023-05-07T05:22:42;2.78;;;0.90;;
41512;SDS011;27244;59.940;30.280;2023-05-07T05:25:10;3.33;;;0.90;;
41512;SDS011;27244;59.940;30.280;2023-05-07T05:27:37;5.70;;;1.15;;
41512;SDS011;27244;59.940;30.280;2023-05-07T05:30:05;2.20;;;0.93;;
41512;SDS011;27244;59.940;30.280;2023-05-07T05:32:34;1.70;;;0.98;;
41512;SDS011;27244;59.940;30.280;2023-05-07T05:35:01;3.38;;;1.05;;
41512;SDS011;27244;59.940;30.280;2023-05-07T05:37:30;3.95;;;0.90;;
41512;SDS011;27244;59.940;30.280;2023-05-07T05:39:58;3.42;;;1.02;;
41512;SDS011;27244;59.940;30.280;2023-05-07T05:42:28;6.97;;;1.73;;
41512;SDS011;27244;59.940;30.280;2023-05-07T05:44:54;1.70;;;1.00;;
41512;SDS011;27244;59.940;30.280;2023-05-07T05:47:22;3.83;;;1.05;;
41512;SDS011;27244;59.940;30.280;2023-05-07T05:49:52;1.85;;;0.98;;
41512;SDS011;27244;59.940;30.280;2023-05-07T05:52:19;6.95;;;1.33;;
41512;SDS011;27244;59.940;30.280;2023-05-07T05:54:50;5.22;;;1.77;;
41512;SDS011;27244;59.940;30.280;2023-05-07T05:57:18;10.52;;;1.40;;
41512;SDS011;27244;59.940;30.280;2023-05-07T05:59:46;8.40;;;2.03;;
41512;SDS011;27244;59.940;30.280;2023-05-07T06:02:13;8.45;;;1.17;;
41512;SDS011;27244;59.940;30.280;2023-05-07T06:04:42;3.75;;;1.10;;
41512;SDS011;27244;59.940;30.280;2023-05-07T06:07:17;4.85;;;1.30;;
41512;SDS011;27244;59.940;30.280;2023-05-07T06:09:44;4.32;;;0.95;;
41512;SDS011;27244;59.940;30.280;2023-05-07T06:12:13;8.02;;;1.20;;
41512;SDS011;27244;59.940;30.280;2023-05-07T06:14:42;8.65;;;1.20;;
41512;SDS011;27244;59.940;30.280;2023-05-07T06:17:11;2.92;;;1.05;;
41512;SDS011;27244;59.940;30.280;2023-05-07T06:19:38;4.88;;;1.13;;
41512;SDS011;27244;59.940;30.280;2023-05-07T06:22:05;2.45;;;1.13;;
41512;SDS011;27244;59.940;30.280;2023-05-07T06:24:33;2.97;;;1.00;;
41512;SDS011;27244;59.940;30.280;2023-05-07T06:27:00;5.05;;;1.10;;
41512;SDS011;27244;59.940;30.280;2023-05-07T06:29:30;3.47;;;1.00;;
41512;SDS011;27244;59.940;30.280;2023-05-07T06:32:05;4.03;;;1.00;;
41512;SDS011;27244;59.940;30.280;2023-05-07T06:34:33;3.83;;;1.20;;
41512;SDS011;27244;59.940;30.280;2023-05-07T06:37:00;2.75;;;0.95;;
41512;SDS011;27244;59.940;30.280;2023-05-07T06:39:38;3.65;;;1.20;;
41512;SDS011;27244;59.940;30.280;2023-05-07T06:42:06;4.82;;;1.00;;
41512;SDS011;27244;59.940;30.280;2023-05-07T06:44:40;2.53;;;1.00;;
41512;SDS011;27244;59.940;30.280;2023-05-07T06:49:38;3.17;;;0.85;;
41512;SDS011;27244;59.940;30.280;2023-05-07T06:52:05;3.63;;;1.30;;
41512;SDS011;27244;59.940;30.280;2023-05-07T06:54:32;5.38;;;1.42;;
41512;SDS011;27244;59.940;30.280;2023-05-07T06:56:59;4.00;;;1.15;;
41512;SDS011;27244;59.940;30.280;2023-05-07T06:59:27;3.75;;;1.25;;
41512;SDS011;27244;59.940;30.280;2023-05-07T07:01:56;2.33;;;1.00;;
41512;SDS011;27244;59.940;30.280;2023-05-07T07:04:22;4.80;;;1.17;;
41512;SDS011;27244;59.940;30.280;2023-05-07T07:06:58;2.42;;;1.00;;
41512;SDS011;27244;59.940;30.280;2023-05-07T07:09:25;4.82;;;0.98;;
41512;SDS011;27244;59.940;30.280;2023-05-07T07:11:53;1.90;;;1.00;;
41512;SDS011;27244;59.940;30.280;2023-05-07T07:14:23;1.63;;;0.95;;
41512;SDS011;27244;59.940;30.280;2023-05-07T07:16:52;3.28;;;1.30;;
41512;SDS011;27244;59.940;30.280;2023-05-07T07:19:21;3.88;;;1.10;;
41512;SDS011;27244;59.940;30.280;2023-05-07T07:21:51;2.65;;;1.00;;
41512;SDS011;27244;59.940;30.280;2023-05-07T07:24:18;1.35;;;0.80;;
41512;SDS011;27244;59.940;30.280;2023-05-07T07:26:48;3.22;;;1.13;;
41512;SDS011;27244;59.940;30.280;2023-05-07T07:29:16;2.08;;;1.23;;
41512;SDS011;27244;59.940;30.280;2023-05-07T07:31:44;6.88;;;1.23;;
41512;SDS011;27244;59.940;30.280;2023-05-07T07:34:13;4.18;;;0.93;;
41512;SDS011;27244;59.940;30.280;2023-05-07T07:36:42;1.63;;;0.82;;
41512;SDS011;27244;59.940;30.280;2023-05-07T07:39:09;2.58;;;1.00;;
41512;SDS011;27244;59.940;30.280;2023-05-07T07:41:36;2.25;;;1.00;;
41512;SDS011;27244;59.940;30.280;2023-05-07T07:44:03;2.90;;;0.90;;
41512;SDS011;27244;59.940;30.280;2023-05-07T07:46:34;2.13;;;1.08;;
41512;SDS011;27244;59.940;30.280;2023-05-07T07:49:02;2.33;;;1.13;;
41512;SDS011;27244;59.940;30.280;2023-05-07T07:51:29;1.77;;;0.93;;
41512;SDS011;27244;59.940;30.280;2023-05-07T07:53:59;2.65;;;1.05;;
41512;SDS011;27244;59.940;30.280;2023-05-07T07:56:29;3.03;;;1.05;;
41512;SDS011;27244;59.940;30.280;2023-05-07T07:58:56;2.00;;;1.00;;
41512;SDS011;27244;59.940;30.280;2023-05-07T08:01:23;5.10;;;1.35;;
41512;SDS011;27244;59.940;30.280;2023-05-07T08:03:52;2.60;;;1.20;;
41512;SDS011;27244;59.940;30.280;2023-05-07T08:06:20;2.53;;;1.10;;
41512;SDS011;27244;59.940;30.280;2023-05-07T08:08:47;2.53;;;1.00;;
41512;SDS011;27244;59.940;30.280;2023-05-07T08:11:20;5.32;;;1.30;;
41512;SDS011;27244;59.940;30.280;2023-05-07T08:13:47;2.17;;;1.33;;
41512;SDS011;27244;59.940;30.280;2023-05-07T08:16:15;2.67;;;1.08;;
41512;SDS011;27244;59.940;30.280;2023-05-07T08:18:42;8.27;;;2.10;;
41512;SDS011;27244;59.940;30.280;2023-05-07T08:21:10;9.13;;;2.10;;
41512;SDS011;27244;59.940;30.280;2023-05-07T08:23:38;3.20;;;1.35;;
41512;SDS011;27244;59.940;30.280;2023-05-07T08:26:07;3.50;;;1.90;;
41512;SDS011;27244;59.940;30.280;2023-05-07T08:28:36;4.95;;;1.05;;
41512;SDS011;27244;59.940;30.280;2023-05-07T08:31:04;5.70;;;1.48;;
41512;SDS011;27244;59.940;30.280;2023-05-07T08:33:35;4.13;;;1.27;;
41512;SDS011;27244;59.940;30.280;2023-05-07T08:36:03;4.10;;;1.10;;
41512;SDS011;27244;59.940;30.280;2023-05-07T08:38:31;5.88;;;1.60;;
41512;SDS011;27244;59.940;30.280;2023-05-07T08:41:01;6.30;;;1.42;;
41512;SDS011;27244;59.940;30.280;2023-05-07T08:43:30;4.35;;;1.35;;
41512;SDS011;27244;59.940;30.280;2023-05-07T08:46:03;3.88;;;1.38;;
41512;SDS011;27244;59.940;30.280;2023-05-07T08:48:35;4.43;;;1.25;;
41512;SDS011;27244;59.940;30.280;2023-05-07T08:51:08;4.40;;;1.10;;
41512;SDS011;27244;59.940;30.280;2023-05-07T08:53:39;3.65;;;1.17;;
41512;SDS011;27244;59.940;30.280;2023-05-07T08:56:10;3.60;;;1.13;;
41512;SDS011;27244;59.940;30.280;2023-05-07T08:58:38;1.48;;;0.90;;
41512;SDS011;27244;59.940;30.280;2023-05-07T09:01:07;4.32;;;1.27;;
41512;SDS011;27244;59.940;30.280;2023-05-07T09:03:36;2.30;;;1.08;;
41512;SDS011;27244;59.940;30.280;2023-05-07T09:06:05;3.90;;;1.02;;
41512;SDS011;27244;59.940;30.280;2023-05-07T09:08:32;3.33;;;1.00;;
41512;SDS011;27244;59.940;30.280;2023-05-07T09:11:02;2.38;;;1.10;;
41512;SDS011;27244;59.940;30.280;2023-05-07T09:13:29;3.33;;;0.90;;
41512;SDS011;27244;59.940;30.280;2023-05-07T09:15:57;4.00;;;1.02;;
41512;SDS011;27244;59.940;30.280;2023-05-07T09:18:26;2.25;;;1.00;;
41512;SDS011;27244;59.940;30.280;2023-05-07T09:20:54;2.28;;;0.98;;
41512;SDS011;27244;59.940;30.280;2023-05-07T09:23:22;2.15;;;1.10;;
41512;SDS011;27244;59.940;30.280;2023-05-07T09:25:49;7.07;;;1.83;;
41512;SDS011;27244;59.940;30.280;2023-05-07T09:28:23;2.47;;;0.90;;
41512;SDS011;27244;59.940;30.280;2023-05-07T09:30:50;2.15;;;0.93;;
41512;SDS011;27244;59.940;30.280;2023-05-07T09:33:18;5.25;;;0.90;;
41512;SDS011;27244;59.940;30.280;2023-05-07T09:35:52;1.98;;;0.90;;
41512;SDS011;27244;59.940;30.280;2023-05-07T09:38:20;2.92;;;0.80;;
41512;SDS011;27244;59.940;30.280;2023-05-07T09:41:01;1.55;;;0.85;;
41512;SDS011;27244;59.940;30.280;2023-05-07T09:43:31;1.83;;;0.85;;
41512;SDS011;27244;59.940;30.280;2023-05-07T09:46:02;1.45;;;0.60;;
41512;SDS011;27244;59.940;30.280;2023-05-07T09:48:34;1.23;;;0.85;;
41512;SDS011;27244;59.940;30.280;2023-05-07T09:51:06;2.30;;;0.80;;
41512;SDS011;27244;59.940;30.280;2023-05-07T09:53:41;2.05;;;0.80;;
41512;SDS011;27244;59.940;30.280;2023-05-07T09:56:11;2.95;;;0.80;;
41512;SDS011;27244;59.940;30.280;2023-05-07T09:58:40;4.38;;;0.80;;
41512;SDS011;27244;59.940;30.280;2023-05-07T10:01:08;8.32;;;1.38;;
41512;SDS011;27244;59.940;30.280;2023-05-07T10:03:39;7.10;;;1.30;;
41512;SDS011;27244;59.940;30.280;2023-05-07T10:06:10;11.23;;;2.58;;
41512;SDS011;27244;59.940;30.280;2023-05-07T10:08:39;9.95;;;1.58;;
41512;SDS011;27244;59.940;30.280;2023-05-07T10:11:07;12.85;;;1.45;;
41512;SDS011;27244;59.940;30.280;2023-05-07T10:13:35;11.05;;;2.15;;
41512;SDS011;27244;59.940;30.280;2023-05-07T10:16:05;12.65;;;1.77;;
41512;SDS011;27244;59.940;30.280;2023-05-07T10:18:39;10.18;;;1.65;;
41512;SDS011;27244;59.940;30.280;2023-05-07T10:21:16;18.08;;;2.38;;
41512;SDS011;27244;59.940;30.280;2023-05-07T10:23:45;17.45;;;2.10;;
41512;SDS011;27244;59.940;30.280;2023-05-07T10:26:15;31.80;;;4.22;;
41512;SDS011;27244;59.940;30.280;2023-05-07T10:28:44;26.67;;;2.88;;
41512;SDS011;27244;59.940;30.280;2023-05-07T10:31:20;22.25;;;3.28;;
41512;SDS011;27244;59.940;30.280;2023-05-07T10:34:13;22.90;;;3.28;;
41512;SDS011;27244;59.940;30.280;2023-05-07T10:36:46;15.70;;;2.35;;
41512;SDS011;27244;59.940;30.280;2023-05-07T10:39:15;12.20;;;2.50;;
41512;SDS011;27244;59.940;30.280;2023-05-07T10:41:42;11.70;;;2.22;;
41512;SDS011;27244;59.940;30.280;2023-05-07T10:44:10;4.88;;;1.15;;
41512;SDS011;27244;59.940;30.280;2023-05-07T10:46:40;5.93;;;1.50;;
41512;SDS011;27244;59.940;30.280;2023-05-07T10:49:18;6.78;;;1.90;;
41512;SDS011;27244;59.940;30.280;2023-05-07T10:52:12;5.68;;;1.42;;
41512;SDS011;27244;59.940;30.280;2023-05-07T10:54:50;5.05;;;1.10;;
41512;SDS011;27244;59.940;30.280;2023-05-07T10:58:22;3.88;;;0.90;;
41512;SDS011;27244;59.940;30.280;2023-05-07T11:00:58;6.40;;;1.15;;
41512;SDS011;27244;59.940;30.280;2023-05-07T11:03:31;5.93;;;1.05;;
41512;SDS011;27244;59.940;30.280;2023-05-07T11:09:03;2.63;;;0.98;;
41512;SDS011;27244;59.940;30.280;2023-05-07T11:11:44;3.47;;;0.90;;
41512;SDS011;27244;59.940;30.280;2023-05-07T11:14:22;2.83;;;1.13;;
41512;SDS011;27244;59.940;30.280;2023-05-07T11:17:13;3.05;;;1.02;;
41512;SDS011;27244;59.940;30.280;2023-05-07T11:19:52;1.95;;;0.73;;
41512;SDS011;27244;59.940;30.280;2023-05-07T11:22:39;2.38;;;0.80;;
41512;SDS011;27244;59.940;30.280;2023-05-07T11:25:24;3.25;;;0.85;;
41512;SDS011;27244;59.940;30.280;2023-05-07T11:28:04;3.40;;;1.00;;
41512;SDS011;27244;59.940;30.280;2023-05-07T11:30:32;2.85;;;0.95;;
41512;SDS011;27244;59.940;30.280;2023-05-07T11:33:00;2.83;;;0.73;;
41512;SDS011;27244;59.940;30.280;2023-05-07T11:35:28;1.90;;;0.60;;
41512;SDS011;27244;59.940;30.280;2023-05-07T11:37:58;5.05;;;0.70;;
41512;SDS011;27244;59.940;30.280;2023-05-07T11:40:28;5.80;;;0.88;;
41512;SDS011;27244;59.940;30.280;2023-05-07T11:42:56;3.08;;;0.90;;
41512;SDS011;27244;59.940;30.280;2023-05-07T11:45:23;1.73;;;0.90;;
41512;SDS011;27244;59.940;30.280;2023-05-07T11:47:51;4.43;;;0.57;;
41512;SDS011;27244;59.940;30.280;2023-05-07T11:50:18;2.70;;;1.10;;
41512;SDS011;27244;59.940;30.280;2023-05-07T11:52:49;3.35;;;0.98;;
41512;SDS011;27244;59.940;30.280;2023-05-07T11:55:18;3.88;;;1.00;;
41512;SDS011;27244;59.940;30.280;2023-05-07T11:57:46;7.13;;;1.20;;
41512;SDS011;27244;59.940;30.280;2023-05-07T12:00:15;1.35;;;0.70;;
41512;SDS011;27244;59.940;30.280;2023-05-07T12:02:43;6.45;;;1.45;;
41512;SDS011;27244;59.940;30.280;2023-05-07T12:05:11;1.85;;;0.57;;
41512;SDS011;27244;59.940;30.280;2023-05-07T12:07:38;3.83;;;0.90;;
41512;SDS011;27244;59.940;30.280;2023-05-07T12:10:05;3.85;;;0.85;;
41512;SDS011;27244;59.940;30.280;2023-05-07T12:12:37;3.38;;;0.73;;
41512;SDS011;27244;59.940;30.280;2023-05-07T12:15:07;2.47;;;0.50;;
41512;SDS011;27244;59.940;30.280;2023-05-07T12:17:35;4.55;;;1.08;;
41512;SDS011;27244;59.940;30.280;2023-05-07T12:20:03;2.92;;;0.75;;
41512;SDS011;27244;59.940;30.280;2023-05-07T12:22:31;2.85;;;0.60;;
41512;SDS011;27244;59.940;30.280;2023-05-07T12:24:58;1.90;;;0.77;;
41512;SDS011;27244;59.940;30.280;2023-05-07T12:27:25;2.03;;;0.60;;
41512;SDS011;27244;59.940;30.280;2023-05-07T12:29:52;1.70;;;0.70;;
41512;SDS011;27244;59.940;30.280;2023-05-07T12:32:21;1.65;;;0.60;;
41512;SDS011;27244;59.940;30.280;2023-05-07T12:34:49;3.67;;;0.85;;
41512;SDS011;27244;59.940;30.280;2023-05-07T12:37:22;1.40;;;0.50;;
41512;SDS011;27244;59.940;30.280;2023-05-07T12:40:03;3.03;;;0.80;;
41512;SDS011;27244;59.940;30.280;2023-05-07T12:44:59;2.10;;;0.90;;
41512;SDS011;27244;59.940;30.280;2023-05-07T12:47:29;4.18;;;0.68;;
41512;SDS011;27244;59.940;30.280;2023-05-07T12:49:56;0.98;;;0.60;;
41512;SDS011;27244;59.940;30.280;2023-05-07T12:52:22;0.65;;;0.50;;
41512;SDS011;27244;59.940;30.280;2023-05-07T12:54:50;2.25;;;0.60;;
41512;SDS011;27244;59.940;30.280;2023-05-07T12:57:19;2.38;;;0.88;;
41512;SDS011;27244;59.940;30.280;2023-05-07T12:59:46;2.13;;;0.90;;
41512;SDS011;27244;59.940;30.280;2023-05-07T13:02:13;1.55;;;0.70;;
41512;SDS011;27244;59.940;30.280;2023-05-07T13:04:42;2.00;;;0.88;;
41512;SDS011;27244;59.940;30.280;2023-05-07T13:07:09;3.30;;;0.70;;
41512;SDS011;27244;59.940;30.280;2023-05-07T13:09:36;0.93;;;0.50;;
41512;SDS011;27244;59.940;30.280;2023-05-07T13:12:03;2.58;;;0.60;;
41512;SDS011;27244;59.940;30.280;2023-05-07T13:14:31;1.67;;;0.70;;
41512;SDS011;27244;59.940;30.280;2023-05-07T13:16:58;2.78;;;1.05;;
41512;SDS011;27244;59.940;30.280;2023-05-07T13:19:25;1.70;;;0.80;;
41512;SDS011;27244;59.940;30.280;2023-05-07T13:21:53;0.82;;;0.47;;
41512;SDS011;27244;59.940;30.280;2023-05-07T13:24:20;2.13;;;0.50;;
41512;SDS011;27244;59.940;30.280;2023-05-07T13:26:47;2.70;;;0.70;;
41512;SDS011;27244;59.940;30.280;2023-05-07T13:29:13;1.27;;;0.88;;
41512;SDS011;27244;59.940;30.280;2023-05-07T13:31:40;4.47;;;0.90;;
41512;SDS011;27244;59.940;30.280;2023-05-07T13:34:09;2.92;;;0.90;;
41512;SDS011;27244;59.940;30.280;2023-05-07T13:36:36;2.08;;;0.85;;
41512;SDS011;27244;59.940;30.280;2023-05-07T13:39:06;2.47;;;0.77;;
41512;SDS011;27244;59.940;30.280;2023-05-07T13:41:34;2.10;;;0.65;;
41512;SDS011;27244;59.940;30.280;2023-05-07T13:44:01;2.70;;;0.90;;
41512;SDS011;27244;59.940;30.280;2023-05-07T13:46:28;1.77;;;1.00;;
41512;SDS011;27244;59.940;30.280;2023-05-07T13:48:55;2.20;;;0.85;;
41512;SDS011;27244;59.940;30.280;2023-05-07T13:51:22;2.80;;;0.98;;
41512;SDS011;27244;59.940;30.280;2023-05-07T13:53:48;2.55;;;0.80;;
41512;SDS011;27244;59.940;30.280;2023-05-07T13:56:17;2.15;;;1.00;;
41512;SDS011;27244;59.940;30.280;2023-05-07T13:58:43;4.55;;;0.98;;
41512;SDS011;27244;59.940;30.280;2023-05-07T14:01:10;3.55;;;1.13;;
41512;SDS011;27244;59.940;30.280;2023-05-07T14:03:37;2.85;;;1.10;;
41512;SDS011;27244;59.940;30.280;2023-05-07T14:06:05;2.10;;;1.10;;
41512;SDS011;27244;59.940;30.280;2023-05-07T14:08:31;1.90;;;0.93;;
41512;SDS011;27244;59.940;30.280;2023-05-07T14:10:58;2.50;;;1.00;;
41512;SDS011;27244;59.940;30.280;2023-05-07T14:13:27;1.08;;;0.80;;
41512;SDS011;27244;59.940;30.280;2023-05-07T14:15:55;6.90;;;1.20;;
41512;SDS011;27244;59.940;30.280;2023-05-07T14:18:22;2.17;;;1.30;;
41512;SDS011;27244;59.940;30.280;2023-05-07T14:20:59;1.50;;;0.70;;
41512;SDS011;27244;59.940;30.280;2023-05-07T14:23:26;1.48;;;1.02;;
41512;SDS011;27244;59.940;30.280;2023-05-07T14:25:53;5.88;;;1.13;;
41512;SDS011;27244;59.940;30.280;2023-05-07T14:28:22;11.05;;;1.30;;
41512;SDS011;27244;59.940;30.280;2023-05-07T14:30:52;3.10;;;0.98;;
41512;SDS011;27244;59.940;30.280;2023-05-07T14:33:19;2.78;;;0.93;;
41512;SDS011;27244;59.940;30.280;2023-05-07T14:35:46;2.08;;;0.77;;
41512;SDS011;27244;59.940;30.280;2023-05-07T14:38:18;2.03;;;1.40;;
41512;SDS011;27244;59.940;30.280;2023-05-07T14:40:45;2.00;;;0.85;;
41512;SDS011;27244;59.940;30.280;2023-05-07T14:43:12;3.00;;;1.40;;
41512;SDS011;27244;59.940;30.280;2023-05-07T14:45:38;6.13;;;1.20;;
41512;SDS011;27244;59.940;30.280;2023-05-07T14:48:07;3.35;;;0.95;;
41512;SDS011;27244;59.940;30.280;2023-05-07T14:50:35;4.00;;;0.90;;
41512;SDS011;27244;59.940;30.280;2023-05-07T14:53:02;1.92;;;1.13;;